Ratho, United Kingdom
Current Conditions -  °F | °C
As of 6:20 AM on Tuesday 21 Oct 2014 (Local Time) from EGPH Reporting Station
Broken Clouds Broken Clouds  
Wind Chill: 50°   Ceiling: 2500
Heat Index: 50°   Visibility: 6mi
Dew Point: 43°   Wind: 25mph
Humidity: 76%   Direction: 260°W
Pressure: 29.06"   Gusts: 37mph
Location:  55.92°N, 3.38°W
Report Text: EGPH 210520Z AUTO 26022G32KT 9999 FEW020 BKN025 BKN030 10/06 Q0984
Loading
Personal Weather Stations






























Interactive Weather Map
Tropical Storm Tracking
New forecast layout! Learn more

10-Day Weather Forecast

Advertisements
Track Severe Weather on mobile